createdAt,value
2018-05-17T00:01:42.035Z,84.80
2018-05-17T00:06:45.541Z,83.80
2018-05-17T00:11:48.319Z,83.90
2018-05-17T00:16:52.238Z,84.40
2018-05-17T00:21:55.063Z,83.80
2018-05-17T00:26:58.109Z,84.20
2018-05-17T00:32:02.328Z,84.80
2018-05-17T00:37:05.833Z,84.60
2018-05-17T00:42:10.341Z,84.20
2018-05-17T00:47:14.027Z,84.20
2018-05-17T00:52:18.223Z,84.70
2018-05-17T00:57:20.969Z,84.30
2018-05-17T01:02:23.700Z,83.70
2018-05-17T01:07:27.534Z,84.40
2018-05-17T01:12:30.265Z,83.90
2018-05-17T01:17:33.238Z,84.10
2018-05-17T01:22:36.557Z,84.20
2018-05-17T01:27:40.011Z,84.10
2018-05-17T01:32:42.658Z,84.10
2018-05-17T01:37:57.390Z,84.70
2018-05-17T01:43:01.362Z,84.40
2018-05-17T01:48:04.484Z,84.00
2018-05-17T01:53:07.341Z,84.90
2018-05-17T01:58:11.018Z,84.80
2018-05-17T02:03:15.084Z,84.70
2018-05-17T02:08:19.277Z,84.40
2018-05-17T02:13:21.954Z,84.40
2018-05-17T02:18:26.702Z,84.30
2018-05-17T02:23:30.996Z,84.20
2018-05-17T02:28:34.421Z,84.80
2018-05-17T02:33:37.247Z,85.10
2018-05-17T02:38:40.135Z,83.90
2018-05-17T02:43:43.085Z,85.00
2018-05-17T02:48:48.062Z,84.80
2018-05-17T02:53:52.474Z,84.70
2018-05-17T02:58:57.120Z,84.60
2018-05-17T03:03:59.837Z,84.10
2018-05-17T03:09:02.812Z,84.70
2018-05-17T03:14:05.634Z,84.70
2018-05-17T03:19:08.578Z,84.90
2018-05-17T03:24:11.534Z,85.70
2018-05-17T03:29:14.545Z,84.90
2018-05-17T03:34:19.437Z,85.10
2018-05-17T03:39:22.370Z,85.20
2018-05-17T03:44:25.852Z,85.50
2018-05-17T03:49:29.826Z,85.70
2018-05-17T03:54:33.717Z,85.10
2018-05-17T03:59:36.969Z,85.00
2018-05-17T04:04:51.620Z,85.80
2018-05-17T04:09:54.298Z,85.60
2018-05-17T04:14:57.016Z,85.40
2018-05-17T04:19:59.633Z,85.50
2018-05-17T04:25:02.431Z,85.60
2018-05-17T04:30:07.639Z,85.50
2018-05-17T04:35:10.548Z,86.00
2018-05-17T04:40:13.432Z,85.70
2018-05-17T04:45:16.264Z,85.80
2018-05-17T04:50:18.970Z,86.10
2018-05-17T04:55:22.407Z,85.70
2018-05-17T05:00:25.175Z,85.70
2018-05-17T05:05:27.876Z,86.20
2018-05-17T05:10:30.598Z,86.00
2018-05-17T05:15:33.854Z,86.90
2018-05-17T05:20:36.624Z,86.20
2018-05-17T05:25:40.085Z,86.40
2018-05-17T05:30:42.748Z,86.30
2018-05-17T05:35:45.420Z,86.70
2018-05-17T05:40:49.059Z,86.60
2018-05-17T05:45:51.691Z,86.70
2018-05-17T05:50:54.307Z,86.60
2018-05-17T05:55:57.283Z,86.80
2018-05-17T06:01:00.031Z,86.50
2018-05-17T06:06:03.517Z,87.30
2018-05-17T06:11:06.951Z,87.00
2018-05-17T06:16:11.599Z,87.00
2018-05-17T06:21:14.312Z,86.90
2018-05-17T06:26:16.914Z,86.80
2018-05-17T06:31:19.617Z,86.80
2018-05-17T06:36:22.314Z,87.00
2018-05-17T06:41:25.636Z,87.20
2018-05-17T06:46:28.293Z,86.80
2018-05-17T06:51:31.700Z,87.00
2018-05-17T06:56:34.506Z,86.80
2018-05-17T07:01:38.036Z,86.90
2018-05-17T07:06:41.433Z,86.70
2018-05-17T07:11:44.382Z,87.30
2018-05-17T07:16:48.161Z,86.30
2018-05-17T07:21:51.641Z,86.30
2018-05-17T07:26:54.296Z,86.50
2018-05-17T07:31:56.900Z,86.50
2018-05-17T07:36:59.517Z,86.20
2018-05-17T07:42:02.198Z,86.30
2018-05-17T07:47:05.688Z,86.60
2018-05-17T07:52:08.333Z,86.80
2018-05-17T07:57:11.012Z,86.20
2018-05-17T08:02:13.903Z,86.70
2018-05-17T08:07:16.468Z,86.30
2018-05-17T08:12:24.103Z,86.00
2018-05-17T08:17:39.968Z,86.20
2018-05-17T08:22:42.758Z,86.10
2018-05-17T08:27:45.678Z,85.90
2018-05-17T08:32:49.088Z,86.20
2018-05-17T08:37:51.839Z,86.10
2018-05-17T08:42:54.505Z,86.30
2018-05-17T08:47:57.322Z,86.00
2018-05-17T08:53:01.403Z,85.60
2018-05-17T08:58:04.027Z,85.70
2018-05-17T09:03:07.577Z,86.20
2018-05-17T09:08:10.342Z,86.30
2018-05-17T09:13:12.999Z,86.50
2018-05-17T09:18:16.235Z,86.40
2018-05-17T09:23:19.460Z,87.50
2018-05-17T09:28:22.555Z,87.90
2018-05-17T09:33:25.591Z,87.90
2018-05-17T09:38:29.343Z,87.80
2018-05-17T09:43:34.645Z,87.20
2018-05-17T09:48:37.620Z,87.40
2018-05-17T09:53:40.433Z,87.60
2018-05-17T09:58:43.139Z,87.80
2018-05-17T10:03:46.033Z,89.40
2018-05-17T10:08:48.699Z,88.30
2018-05-17T10:13:51.561Z,87.90
2018-05-17T10:18:55.407Z,87.10
2018-05-17T10:23:58.036Z,86.40
2018-05-17T10:29:00.630Z,85.80
2018-05-17T10:34:03.291Z,85.30
2018-05-17T10:39:06.794Z,85.70
2018-05-17T10:44:09.391Z,85.70
2018-05-17T10:49:13.503Z,85.50
2018-05-17T10:54:16.304Z,85.40
2018-05-17T10:59:19.984Z,85.40
2018-05-17T11:04:22.728Z,85.70
2018-05-17T11:09:26.072Z,85.70
2018-05-17T11:14:29.411Z,86.00
2018-05-17T11:19:32.265Z,86.50
2018-05-17T11:24:35.821Z,87.10
2018-05-17T11:29:38.502Z,87.20
2018-05-17T11:34:42.385Z,86.40
2018-05-17T11:39:45.066Z,87.00
2018-05-17T11:44:48.619Z,85.80
2018-05-17T11:49:51.259Z,86.00
2018-05-17T11:54:54.701Z,86.40
2018-05-17T11:59:57.567Z,86.90
2018-05-17T12:05:00.206Z,87.30
2018-05-17T12:10:02.935Z,86.90
2018-05-17T12:15:06.549Z,86.70
2018-05-17T12:20:10.773Z,86.30
2018-05-17T12:25:13.806Z,86.20
2018-05-17T12:30:17.313Z,86.40
2018-05-17T12:35:20.547Z,86.20
2018-05-17T12:40:26.901Z,87.10
2018-05-17T12:45:29.721Z,86.90
2018-05-17T12:50:32.501Z,86.80
2018-05-17T12:55:35.367Z,86.10
2018-05-17T13:00:37.970Z,86.10
2018-05-17T13:05:41.425Z,85.90
2018-05-17T13:10:44.612Z,85.70
2018-05-17T13:15:47.271Z,86.00
2018-05-17T13:20:51.472Z,85.50
2018-05-17T13:25:54.014Z,85.00
2018-05-17T13:30:57.401Z,84.60
2018-05-17T13:36:00.723Z,84.20
2018-05-17T13:41:03.507Z,84.10
2018-05-17T13:46:08.425Z,84.40
2018-05-17T13:51:11.024Z,84.00
2018-05-17T13:56:14.773Z,83.80
2018-05-17T14:01:17.399Z,83.30
2018-05-17T14:06:20.055Z,83.20
2018-05-17T14:11:22.674Z,82.50
2018-05-17T14:16:25.320Z,82.00
2018-05-17T14:21:29.137Z,82.00
2018-05-17T14:26:31.737Z,81.80
2018-05-17T14:31:34.337Z,80.80
2018-05-17T14:36:38.796Z,79.50
2018-05-17T14:41:41.948Z,79.50
2018-05-17T14:46:45.372Z,79.90
2018-05-17T14:51:48.143Z,79.30
2018-05-17T14:56:50.781Z,79.40
2018-05-17T15:01:53.509Z,78.90
2018-05-17T15:06:56.168Z,79.40
2018-05-17T15:11:59.021Z,78.50
2018-05-17T15:17:01.653Z,78.40
2018-05-17T15:22:04.217Z,77.40
2018-05-17T15:27:07.568Z,78.10
2018-05-17T15:32:10.325Z,78.00
2018-05-17T15:37:14.422Z,77.80
2018-05-17T15:42:17.292Z,77.60
2018-05-17T15:47:25.162Z,76.50
2018-05-17T15:52:27.953Z,76.80
2018-05-17T15:57:30.824Z,77.10
2018-05-17T16:02:33.423Z,76.90
2018-05-17T16:07:36.041Z,76.90
2018-05-17T16:12:39.046Z,76.80
2018-05-17T16:17:41.743Z,76.30
2018-05-17T16:22:44.416Z,75.50
2018-05-17T16:27:48.700Z,75.70
2018-05-17T16:32:51.306Z,72.70
2018-05-17T16:37:53.900Z,74.00
2018-05-17T16:42:56.515Z,72.50
2018-05-17T16:47:59.134Z,74.30
2018-05-17T16:53:01.802Z,74.30
2018-05-17T17:10:05.610Z,74.60
2018-05-17T17:15:53.437Z,74.70
2018-05-17T17:20:56.093Z,74.60
2018-05-17T17:25:58.836Z,74.70
2018-05-17T17:31:02.437Z,75.00
2018-05-17T17:36:05.325Z,74.70
2018-05-17T17:41:08.439Z,74.90
2018-05-17T17:46:11.242Z,75.20
2018-05-17T17:51:14.228Z,75.10
2018-05-17T17:56:17.725Z,74.70
2018-05-17T18:01:21.224Z,74.50
2018-05-17T18:06:23.928Z,74.60
2018-05-17T18:11:27.063Z,74.60
2018-05-17T18:16:31.091Z,74.30
2018-05-17T18:21:33.699Z,74.50
2018-05-17T18:26:36.436Z,74.40
2018-05-17T18:31:39.056Z,74.70
2018-05-17T18:36:42.634Z,75.00
2018-05-17T18:41:45.405Z,74.90
2018-05-17T18:46:48.153Z,75.30
2018-05-17T18:51:50.835Z,75.50
2018-05-17T18:56:53.581Z,75.70
2018-05-17T19:01:56.408Z,76.20
2018-05-17T19:06:59.104Z,76.40
2018-05-17T19:12:01.985Z,76.60
2018-05-17T19:17:05.233Z,76.70
2018-05-17T19:22:08.255Z,77.00
2018-05-17T19:27:11.074Z,77.30
2018-05-17T19:32:14.082Z,77.50
2018-05-17T19:37:17.066Z,77.60
2018-05-17T19:42:19.880Z,77.80
2018-05-17T19:47:22.696Z,77.90
2018-05-17T19:52:26.306Z,78.00
2018-05-17T19:57:29.297Z,78.60
2018-05-17T20:02:31.992Z,78.10
2018-05-17T20:07:36.127Z,78.10
2018-05-17T20:12:39.147Z,78.20
2018-05-17T20:17:42.728Z,78.00
2018-05-17T20:22:45.459Z,78.40
2018-05-17T20:27:48.123Z,78.40
2018-05-17T20:32:50.808Z,78.50
2018-05-17T20:37:55.274Z,78.80
2018-05-17T20:43:00.910Z,78.80
2018-05-17T20:48:03.589Z,78.90
2018-05-17T20:53:06.324Z,79.00
2018-05-17T20:58:09.030Z,79.30
2018-05-17T21:03:11.919Z,79.70
2018-05-17T21:08:14.598Z,80.00
2018-05-17T21:13:17.651Z,80.00
2018-05-17T21:18:21.050Z,80.20
2018-05-17T21:23:24.346Z,80.30
2018-05-17T21:28:26.992Z,80.70
2018-05-17T21:33:29.730Z,80.50
2018-05-17T21:38:34.175Z,80.70
2018-05-17T21:43:37.334Z,81.10
2018-05-17T21:48:40.091Z,80.80
2018-05-17T21:53:42.714Z,81.20
2018-05-17T21:58:46.400Z,81.20
2018-05-17T22:03:49.061Z,81.10
2018-05-17T22:08:51.716Z,81.20
2018-05-17T22:13:54.508Z,81.30
2018-05-17T22:18:57.893Z,81.20
2018-05-17T22:24:00.603Z,81.20
2018-05-17T22:29:03.265Z,81.00
2018-05-17T22:34:06.133Z,81.10
2018-05-17T22:39:09.837Z,80.70
2018-05-17T22:44:12.879Z,80.90
2018-05-17T22:49:17.020Z,80.90
2018-05-17T22:54:19.783Z,80.90
2018-05-17T22:59:22.507Z,80.70
2018-05-17T23:04:26.240Z,81.10
2018-05-17T23:09:29.925Z,81.10
2018-05-17T23:14:32.692Z,81.00
2018-05-17T23:19:35.288Z,81.10
2018-05-17T23:24:38.208Z,81.00
2018-05-17T23:29:40.987Z,81.00
2018-05-17T23:34:43.633Z,81.00
2018-05-17T23:39:46.994Z,81.80
2018-05-17T23:44:51.413Z,81.40
2018-05-17T23:49:54.345Z,81.10
2018-05-17T23:54:58.089Z,81.00
